Terminal Aerodrome Forecast
Issued by NWS

Home | Current Version | Previous Version | Text Only | Print | Product List | Glossary On
Versions: 1 2 3 4 5 6 7 8 9 10 11 12 13 14 15 16 17 18 19 20 21 22 23 24 25 26 27 28 29 30
000
FTAK31 PAFA 231655 AAA
TAFASC
TAF AMD
PASC 231655Z 2317/2412 09004KT P6SM FEW005 BKN200
     FM231800 09012KT P6SM SCT025 BKN050 OVC100
     FM240000 08020G30KT 3SM BLSN SCT015 BKN025 OVC050
     FM240300 08025G35KT 1 1/2SM -SN BLSN BR SCT005 OVC015
     FM240600 08025G35KT 1/2SM SN BLSN FZFG OVC005=

USA.gov is the U.S. government's official web portal to all federal, state and local government web resources and services.